createdAt,value
2023-03-11T00:01:23.144Z,0.50
2023-03-11T00:03:52.753Z,0.48
2023-03-11T00:06:22.332Z,0.46
2023-03-11T00:08:52.375Z,0.47
2023-03-11T00:11:22.516Z,0.46
2023-03-11T00:13:54.642Z,0.49
2023-03-11T00:16:24.196Z,0.48
2023-03-11T00:18:54.024Z,0.49
2023-03-11T00:21:23.598Z,0.48
2023-03-11T00:23:53.176Z,0.47
2023-03-11T00:26:22.928Z,0.46
2023-03-11T00:28:55.865Z,0.46
2023-03-11T00:31:26.550Z,0.46
2023-03-11T00:33:57.340Z,0.48
2023-03-11T00:36:28.862Z,0.47
2023-03-11T00:38:58.428Z,0.47
2023-03-11T00:41:28.173Z,0.48
2023-03-11T00:44:00.331Z,0.47
2023-03-11T00:46:31.484Z,0.48
2023-03-11T00:49:01.100Z,0.46
2023-03-11T00:51:33.779Z,0.46
2023-03-11T00:54:03.758Z,0.47
2023-03-11T00:56:33.750Z,0.46
2023-03-11T00:59:05.892Z,0.47
2023-03-11T01:01:35.682Z,0.49
2023-03-11T01:04:05.272Z,0.48
2023-03-11T01:06:44.703Z,0.50
2023-03-11T01:09:14.909Z,0.49
2023-03-11T01:11:46.183Z,0.50
2023-03-11T01:14:18.327Z,0.52
2023-03-11T01:16:47.929Z,0.52
2023-03-11T01:19:18.919Z,0.52
2023-03-11T01:21:50.024Z,0.53
2023-03-11T01:24:19.769Z,0.54
2023-03-11T01:26:49.334Z,0.54
2023-03-11T01:29:22.564Z,0.51
2023-03-11T01:31:52.088Z,0.52
2023-03-11T01:34:22.084Z,0.52
2023-03-11T01:36:51.667Z,0.51
2023-03-11T01:39:22.570Z,0.49
2023-03-11T01:41:53.142Z,0.49
2023-03-11T01:44:25.583Z,0.50
2023-03-11T01:47:25.580Z,0.53
2023-03-11T01:49:55.311Z,0.53
2023-03-11T01:52:25.000Z,0.54
2023-03-11T01:54:55.284Z,0.55
2023-03-11T01:57:25.203Z,0.56
2023-03-11T02:00:00.177Z,0.58
2023-03-11T02:02:33.859Z,0.59
2023-03-11T02:05:05.728Z,0.59
2023-03-11T02:07:35.390Z,0.61
2023-03-11T02:10:07.281Z,0.61
2023-03-11T02:12:38.508Z,0.60
2023-03-11T02:15:12.432Z,0.58
2023-03-11T02:17:43.160Z,0.56
2023-03-11T02:20:19.398Z,0.56
2023-03-11T02:22:49.318Z,0.56
2023-03-11T02:25:25.329Z,0.56
2023-03-11T02:27:58.623Z,0.54
2023-03-11T02:30:30.190Z,0.54
2023-03-11T02:33:00.326Z,0.54
2023-03-11T02:35:31.608Z,0.54
2023-03-11T02:38:03.249Z,0.51
2023-03-11T02:40:41.996Z,0.46
2023-03-11T02:43:16.960Z,0.37
2023-03-11T02:45:48.054Z,0.28
2023-03-11T02:48:18.443Z,0.20
2023-03-11T02:50:49.440Z,0.09
2023-03-11T02:53:21.164Z,-0.03
2023-03-11T02:55:50.742Z,-0.13
2023-03-11T02:58:22.878Z,-0.25
2023-03-11T03:00:52.438Z,-0.33
2023-03-11T03:03:22.026Z,-0.42
2023-03-11T03:05:51.718Z,-0.52
2023-03-11T03:08:21.293Z,-0.59
2023-03-11T03:10:51.033Z,-0.67
2023-03-11T03:13:23.334Z,-0.73
2023-03-11T03:15:53.168Z,-0.79
2023-03-11T03:18:22.705Z,-0.86
2023-03-11T03:20:53.326Z,-0.92
2023-03-11T03:23:23.341Z,-0.96
2023-03-11T03:25:53.108Z,-0.99
2023-03-11T03:28:25.537Z,-1.04
2023-03-11T03:30:55.098Z,-1.08
2023-03-11T03:33:24.886Z,-1.14
2023-03-11T03:35:54.554Z,-1.20
2023-03-11T03:38:27.835Z,-1.24
2023-03-11T03:40:57.811Z,-1.29
2023-03-11T03:43:30.199Z,-1.34
2023-03-11T03:46:00.323Z,-1.41
2023-03-11T03:48:33.466Z,-1.46
2023-03-11T03:51:07.101Z,-1.51
2023-03-11T03:53:38.322Z,-1.57
2023-03-11T03:56:10.769Z,-1.60
2023-03-11T03:58:43.841Z,-1.64
2023-03-11T04:01:14.391Z,-1.64
2023-03-11T04:03:44.735Z,-1.63
2023-03-11T04:06:20.496Z,-1.63
2023-03-11T04:08:55.647Z,-1.62
2023-03-11T04:11:30.042Z,-1.62
2023-03-11T04:14:02.588Z,-1.63
2023-03-11T04:16:33.890Z,-1.66
2023-03-11T04:19:12.032Z,-1.67
2023-03-11T04:21:41.915Z,-1.69
2023-03-11T04:24:11.796Z,-1.69
2023-03-11T04:26:42.487Z,-1.70
2023-03-11T04:29:18.831Z,-1.71
2023-03-11T04:31:52.467Z,-1.71
2023-03-11T04:34:22.387Z,-1.73
2023-03-11T04:36:54.808Z,-1.71
2023-03-11T04:39:29.431Z,-1.70
2023-03-11T04:41:59.501Z,-1.63
2023-03-11T04:44:32.918Z,-1.59
2023-03-11T04:47:02.741Z,-1.56
2023-03-11T04:49:32.342Z,-1.52
2023-03-11T04:52:01.890Z,-1.54
2023-03-11T04:54:31.811Z,-1.57
2023-03-11T04:57:01.479Z,-1.61
2023-03-11T04:59:33.713Z,-1.65
2023-03-11T05:02:03.714Z,-1.72
2023-03-11T05:04:34.153Z,-1.77
2023-03-11T05:07:04.323Z,-1.82
2023-03-11T05:09:34.298Z,-1.84
2023-03-11T05:12:04.318Z,-1.83
2023-03-11T05:14:37.598Z,-1.78
2023-03-11T05:17:07.628Z,-1.73
2023-03-11T05:19:37.361Z,-1.70
2023-03-11T05:22:13.160Z,-1.69
2023-03-11T05:24:42.730Z,-1.73
2023-03-11T05:27:12.343Z,-1.79
2023-03-11T05:29:45.033Z,-1.88
2023-03-11T05:32:16.205Z,-1.92
2023-03-11T05:34:48.538Z,-1.93
2023-03-11T05:37:19.262Z,-1.92
2023-03-11T05:39:50.918Z,-1.89
2023-03-11T05:42:21.534Z,-1.84
2023-03-11T05:44:56.443Z,-1.79
2023-03-11T05:47:27.700Z,-1.72
2023-03-11T05:49:58.713Z,-1.62
2023-03-11T05:52:30.596Z,-1.52
2023-03-11T05:55:00.309Z,-1.43
2023-03-11T05:57:32.564Z,-1.36
2023-03-11T06:00:05.683Z,-1.27
2023-03-11T06:02:43.984Z,-1.20
2023-03-11T06:05:17.755Z,-1.13
2023-03-11T06:07:49.915Z,-1.06
2023-03-11T06:10:21.162Z,-1.01
2023-03-11T06:12:50.767Z,-0.96
2023-03-11T06:15:28.406Z,-0.91
2023-03-11T06:17:58.251Z,-0.88
2023-03-11T06:20:29.019Z,-0.84
2023-03-11T06:22:58.797Z,-0.80
2023-03-11T06:25:28.737Z,-0.77
2023-03-11T06:27:58.841Z,-0.73
2023-03-11T06:30:31.115Z,-0.70
2023-03-11T06:33:09.175Z,-0.68
2023-03-11T06:35:39.400Z,-0.65
2023-03-11T06:38:09.050Z,-0.58
2023-03-11T06:40:39.926Z,-0.47
2023-03-11T06:43:09.691Z,-0.38
2023-03-11T06:45:44.942Z,-0.32
2023-03-11T06:48:14.790Z,-0.27
2023-03-11T06:50:44.505Z,-0.23
2023-03-11T06:53:14.374Z,-0.11
2023-03-11T06:55:44.110Z,0.06
2023-03-11T06:58:13.924Z,0.20
2023-03-11T07:00:46.163Z,0.29
2023-03-11T07:03:15.891Z,0.36
2023-03-11T07:05:45.595Z,0.42
2023-03-11T07:08:15.506Z,0.52
2023-03-11T07:10:45.090Z,0.69
2023-03-11T07:13:15.315Z,0.93
2023-03-11T07:15:48.411Z,1.23
2023-03-11T07:18:18.194Z,1.59
2023-03-11T07:20:48.202Z,2.31
2023-03-11T07:23:18.257Z,3.07
2023-03-11T07:25:49.115Z,3.52
2023-03-11T07:28:18.965Z,3.85
2023-03-11T07:30:51.230Z,4.56
2023-03-11T07:33:21.092Z,5.55
2023-03-11T07:35:50.735Z,6.55
2023-03-11T07:38:20.953Z,7.48
2023-03-11T07:40:50.646Z,8.53
2023-03-11T07:43:21.011Z,9.45
2023-03-11T07:45:55.047Z,10.41
2023-03-11T07:48:24.610Z,11.27
2023-03-11T07:51:03.084Z,11.97
2023-03-11T07:53:32.694Z,12.36
2023-03-11T07:56:03.179Z,12.47
2023-03-11T07:58:33.318Z,12.43
2023-03-11T08:01:10.350Z,12.86
2023-03-11T08:03:40.457Z,13.30
2023-03-11T08:06:15.326Z,13.71
2023-03-11T08:08:45.192Z,14.10
2023-03-11T08:11:15.455Z,14.36
2023-03-11T08:13:45.783Z,14.63
2023-03-11T08:16:19.660Z,15.06
2023-03-11T08:18:49.576Z,15.40
2023-03-11T08:21:20.838Z,15.90
2023-03-11T08:23:50.557Z,16.44
2023-03-11T08:26:22.166Z,16.81
2023-03-11T08:28:52.203Z,17.17
2023-03-11T08:31:26.897Z,17.62
2023-03-11T08:33:58.512Z,17.91
2023-03-11T08:36:28.435Z,18.10
2023-03-11T08:38:58.098Z,18.20
2023-03-11T08:41:28.579Z,18.48
2023-03-11T08:43:58.240Z,18.85
2023-03-11T08:46:31.884Z,18.96
2023-03-11T08:49:02.089Z,18.87
2023-03-11T08:51:33.274Z,18.73
2023-03-11T08:54:03.767Z,18.42
2023-03-11T08:56:33.489Z,18.40
2023-03-11T08:59:03.166Z,18.40
2023-03-11T09:01:35.403Z,18.66
2023-03-11T09:04:05.151Z,18.69
2023-03-11T09:06:34.757Z,18.78
2023-03-11T09:09:04.349Z,19.07
2023-03-11T09:11:37.432Z,19.29
2023-03-11T09:14:07.620Z,19.62
2023-03-11T09:16:39.793Z,20.11
2023-03-11T09:19:09.802Z,20.43
2023-03-11T09:21:41.072Z,20.71
2023-03-11T09:24:11.274Z,20.90
2023-03-11T09:26:41.058Z,20.92
2023-03-11T09:29:10.666Z,20.44
2023-03-11T09:31:42.877Z,19.81
2023-03-11T09:34:16.040Z,19.63
2023-03-11T09:36:46.973Z,19.39
2023-03-11T09:39:16.646Z,18.22
2023-03-11T09:41:57.938Z,17.98
2023-03-11T09:44:33.026Z,18.06
2023-03-11T09:47:37.801Z,17.01
2023-03-11T09:50:23.877Z,15.13
2023-03-11T09:53:05.439Z,14.36
2023-03-11T09:55:38.031Z,14.64
2023-03-11T09:58:14.304Z,14.95
2023-03-11T10:00:44.597Z,15.50
2023-03-11T10:03:37.383Z,15.99
2023-03-11T10:06:17.370Z,16.08
2023-03-11T10:08:50.327Z,15.40
2023-03-11T10:11:32.653Z,14.47
2023-03-11T10:14:09.359Z,13.75
2023-03-11T10:16:46.482Z,13.21
2023-03-11T10:19:27.724Z,12.93
2023-03-11T10:22:05.572Z,12.43
2023-03-11T10:24:53.564Z,11.65
2023-03-11T10:27:27.278Z,11.20
2023-03-11T10:30:01.131Z,10.95
2023-03-11T10:32:39.562Z,10.66
2023-03-11T10:35:19.563Z,10.29
2023-03-11T10:37:53.178Z,9.99
2023-03-11T10:40:29.372Z,9.79
2023-03-11T10:43:01.156Z,9.62
2023-03-11T10:45:31.901Z,9.45
2023-03-11T10:48:01.593Z,9.48
2023-03-11T10:50:36.709Z,9.50
2023-03-11T10:53:11.720Z,9.54
2023-03-11T10:55:48.984Z,9.50
2023-03-11T10:58:19.961Z,9.44
2023-03-11T11:00:49.834Z,9.38
2023-03-11T11:03:24.414Z,9.34
2023-03-11T11:06:05.990Z,9.37
2023-03-11T11:08:35.797Z,9.30
2023-03-11T11:11:06.569Z,9.02
2023-03-11T11:13:37.234Z,8.72
2023-03-11T11:16:08.264Z,8.59
2023-03-11T11:18:40.153Z,8.51
2023-03-11T11:21:16.927Z,8.42
2023-03-11T11:23:50.914Z,8.16
2023-03-11T11:26:24.101Z,7.84
2023-03-11T11:29:09.447Z,7.47
2023-03-11T11:31:39.806Z,7.26
2023-03-11T11:34:30.749Z,7.16
2023-03-11T11:37:04.933Z,7.18
2023-03-11T11:39:35.244Z,7.29
2023-03-11T11:42:04.834Z,7.46
2023-03-11T11:44:36.781Z,7.60
2023-03-11T11:47:10.255Z,7.65
2023-03-11T11:49:40.391Z,7.68
2023-03-11T11:52:16.728Z,7.69
2023-03-11T11:54:49.877Z,7.67
2023-03-11T11:57:21.258Z,7.60
2023-03-11T11:59:50.954Z,7.55
2023-03-11T12:02:33.388Z,7.57
2023-03-11T12:05:09.841Z,7.61
2023-03-11T12:08:00.152Z,7.76
2023-03-11T12:10:32.653Z,7.85
2023-03-11T12:13:20.765Z,7.91
2023-03-11T12:15:53.251Z,8.00
2023-03-11T12:18:25.893Z,8.03
2023-03-11T12:20:57.568Z,7.99
2023-03-11T12:23:44.266Z,8.01
2023-03-11T12:26:18.579Z,8.00
2023-03-11T12:28:53.351Z,8.01
2023-03-11T12:31:24.532Z,8.04
2023-03-11T12:33:59.041Z,8.06
2023-03-11T12:36:32.590Z,8.12
2023-03-11T12:39:06.517Z,8.19
2023-03-11T12:41:39.953Z,8.17
2023-03-11T12:44:25.273Z,8.11
2023-03-11T12:47:07.044Z,8.10
2023-03-11T12:49:38.560Z,8.09
2023-03-11T12:52:19.769Z,8.05
2023-03-11T12:54:53.065Z,7.99
2023-03-11T12:57:35.762Z,7.88
2023-03-11T13:00:18.166Z,7.75
2023-03-11T13:03:17.775Z,7.61
2023-03-11T13:06:01.546Z,7.41
2023-03-11T13:08:36.345Z,7.25
2023-03-11T13:11:36.468Z,7.13
2023-03-11T13:14:14.636Z,7.10
2023-03-11T13:16:44.279Z,7.07
2023-03-11T13:19:50.191Z,7.07
2023-03-11T13:22:45.223Z,7.04
2023-03-11T13:25:34.449Z,6.99
2023-03-11T13:28:29.342Z,6.97
2023-03-11T13:31:05.564Z,6.92
2023-03-11T13:33:44.780Z,6.87
2023-03-11T13:36:23.292Z,6.77
2023-03-11T13:39:08.788Z,6.65
2023-03-11T13:41:39.794Z,6.52
2023-03-11T13:44:25.230Z,6.39
2023-03-11T13:46:56.609Z,6.29
2023-03-11T13:49:35.508Z,6.18
2023-03-11T13:52:05.995Z,6.14
2023-03-11T13:54:41.027Z,6.14
2023-03-11T13:57:22.957Z,6.16
2023-03-11T13:59:58.395Z,6.19
2023-03-11T14:02:29.907Z,6.25
2023-03-11T14:05:01.619Z,6.31
2023-03-11T14:07:34.361Z,6.33
2023-03-11T14:10:23.670Z,6.32
2023-03-11T14:12:53.712Z,6.31
2023-03-11T14:15:27.753Z,6.32
2023-03-11T14:17:57.378Z,6.30
2023-03-11T14:20:28.973Z,6.31
2023-03-11T14:22:59.342Z,6.30
2023-03-11T14:25:31.130Z,6.31
2023-03-11T14:28:02.504Z,6.28
2023-03-11T14:30:36.612Z,6.25
2023-03-11T14:33:06.581Z,6.19
2023-03-11T14:35:39.432Z,6.09
2023-03-11T14:38:23.953Z,6.01
2023-03-11T14:40:55.399Z,5.96
2023-03-11T14:43:25.165Z,5.89
2023-03-11T14:45:57.796Z,5.85
2023-03-11T14:48:30.445Z,5.83
2023-03-11T14:51:01.634Z,5.83
2023-03-11T14:53:34.043Z,5.86
2023-03-11T14:56:05.601Z,5.88
2023-03-11T14:58:37.118Z,5.90
2023-03-11T15:01:13.279Z,5.97
2023-03-11T15:03:47.410Z,6.00
2023-03-11T15:06:18.825Z,6.02
2023-03-11T15:08:50.874Z,6.02
2023-03-11T15:11:25.783Z,6.01
2023-03-11T15:13:56.091Z,5.97
2023-03-11T15:16:33.524Z,5.92
2023-03-11T15:19:04.195Z,5.85
2023-03-11T15:21:33.886Z,5.78
2023-03-11T15:24:07.006Z,5.71
2023-03-11T15:26:38.289Z,5.65
2023-03-11T15:29:16.514Z,5.63
2023-03-11T15:31:49.237Z,5.63
2023-03-11T15:34:27.602Z,5.62
2023-03-11T15:37:18.800Z,5.56
2023-03-11T15:39:51.281Z,5.52
2023-03-11T15:42:26.076Z,5.48
2023-03-11T15:45:08.462Z,5.47
2023-03-11T15:47:41.151Z,5.46
2023-03-11T15:50:27.232Z,5.44
2023-03-11T15:52:59.934Z,5.44
2023-03-11T15:55:30.498Z,5.42
2023-03-11T15:58:05.312Z,5.42
2023-03-11T16:00:35.410Z,5.43
2023-03-11T16:03:08.031Z,5.45
2023-03-11T16:05:37.845Z,5.46
2023-03-11T16:08:07.805Z,5.49
2023-03-11T16:10:37.629Z,5.51
2023-03-11T16:13:07.735Z,5.51
2023-03-11T16:15:39.154Z,5.48
2023-03-11T16:18:12.181Z,5.43
2023-03-11T16:20:45.237Z,5.37
2023-03-11T16:23:19.357Z,5.29
2023-03-11T16:25:48.731Z,5.19
2023-03-11T16:28:19.404Z,5.06
2023-03-11T16:30:49.418Z,4.99
2023-03-11T16:33:21.722Z,4.91
2023-03-11T16:35:51.597Z,4.84
2023-03-11T16:38:23.179Z,4.76
2023-03-11T16:40:59.495Z,4.69
2023-03-11T16:43:29.783Z,4.62
2023-03-11T16:45:59.433Z,4.55
2023-03-11T16:48:31.629Z,4.51
2023-03-11T16:51:01.254Z,4.46
2023-03-11T16:53:30.981Z,4.42
2023-03-11T16:56:00.614Z,4.39
2023-03-11T16:58:30.857Z,4.36
2023-03-11T17:01:00.631Z,4.29
2023-03-11T17:03:41.927Z,4.23
2023-03-11T17:06:12.589Z,4.15
2023-03-11T17:08:42.246Z,4.09
2023-03-11T17:11:17.473Z,4.02
2023-03-11T17:13:47.239Z,3.95
2023-03-11T17:16:17.349Z,3.85
2023-03-11T17:18:49.776Z,3.73
2023-03-11T17:21:20.035Z,3.64
2023-03-11T17:23:50.083Z,3.54
2023-03-11T17:26:20.534Z,3.45
2023-03-11T17:28:50.157Z,3.36
2023-03-11T17:31:20.417Z,3.27
2023-03-11T17:33:52.618Z,3.17
2023-03-11T17:36:22.533Z,3.06
2023-03-11T17:38:54.932Z,2.95
2023-03-11T17:41:25.431Z,2.83
2023-03-11T17:43:55.152Z,2.70
2023-03-11T17:46:25.270Z,2.58
2023-03-11T17:48:57.545Z,2.47
2023-03-11T17:51:28.403Z,2.36
2023-03-11T17:53:59.569Z,2.28
2023-03-11T17:56:29.437Z,2.18
2023-03-11T17:58:59.551Z,2.08
2023-03-11T18:01:30.469Z,2.00
2023-03-11T18:04:02.944Z,1.92
2023-03-11T18:06:32.985Z,1.85
2023-03-11T18:09:02.843Z,1.78
2023-03-11T18:11:32.487Z,1.70
2023-03-11T18:14:02.121Z,1.61
2023-03-11T18:16:33.772Z,1.52
2023-03-11T18:19:05.998Z,1.45
2023-03-11T18:21:35.598Z,1.37
2023-03-11T18:24:05.270Z,1.27
2023-03-11T18:26:34.905Z,1.20
2023-03-11T18:29:04.626Z,1.12
2023-03-11T18:31:34.661Z,1.04
2023-03-11T18:34:12.309Z,0.99
2023-03-11T18:36:42.813Z,0.92
2023-03-11T18:39:14.038Z,0.86
2023-03-11T18:41:43.978Z,0.78
2023-03-11T18:44:13.712Z,0.70
2023-03-11T18:46:44.118Z,0.63
2023-03-11T18:49:17.586Z,0.56
2023-03-11T18:51:47.194Z,0.52
2023-03-11T18:54:16.803Z,0.43
2023-03-11T18:56:46.428Z,0.37
2023-03-11T18:59:16.036Z,0.29
2023-03-11T19:01:45.680Z,0.22
2023-03-11T19:04:17.908Z,0.13
2023-03-11T19:06:48.157Z,0.05
2023-03-11T19:09:18.411Z,0.01
2023-03-11T19:11:48.136Z,-0.05
2023-03-11T19:14:17.737Z,-0.09
2023-03-11T19:16:47.416Z,-0.14
2023-03-11T19:19:19.668Z,-0.19
2023-03-11T19:21:49.675Z,-0.20
2023-03-11T19:24:19.266Z,-0.19
2023-03-11T19:26:48.898Z,-0.18
2023-03-11T19:29:19.734Z,-0.17
2023-03-11T19:31:49.349Z,-0.22
2023-03-11T19:34:22.372Z,-0.27
2023-03-11T19:36:52.025Z,-0.33
2023-03-11T19:39:21.619Z,-0.39
2023-03-11T19:41:51.229Z,-0.45
2023-03-11T19:44:20.843Z,-0.52
2023-03-11T19:46:50.888Z,-0.56
2023-03-11T19:49:23.594Z,-0.60
2023-03-11T19:51:54.789Z,-0.63
2023-03-11T19:54:24.826Z,-0.67
2023-03-11T19:56:54.457Z,-0.70
2023-03-11T19:59:24.158Z,-0.71
2023-03-11T20:01:53.816Z,-0.73
2023-03-11T20:04:26.051Z,-0.74
2023-03-11T20:06:55.794Z,-0.73
2023-03-11T20:09:25.426Z,-0.73
2023-03-11T20:11:55.146Z,-0.71
2023-03-11T20:14:24.747Z,-0.69
2023-03-11T20:16:54.385Z,-0.66
2023-03-11T20:19:27.052Z,-0.61
2023-03-11T20:21:56.768Z,-0.54
2023-03-11T20:24:26.414Z,-0.48
2023-03-11T20:26:56.439Z,-0.41
2023-03-11T20:29:26.186Z,-0.37
2023-03-11T20:31:55.945Z,-0.38
2023-03-11T20:34:29.379Z,-0.40
2023-03-11T20:36:59.079Z,-0.45
2023-03-11T20:39:28.916Z,-0.49
2023-03-11T20:41:58.660Z,-0.54
2023-03-11T20:44:28.705Z,-0.58
2023-03-11T20:46:58.461Z,-0.61
2023-03-11T20:49:30.728Z,-0.62
2023-03-11T20:52:01.298Z,-0.64
2023-03-11T20:54:30.961Z,-0.65
2023-03-11T20:57:00.608Z,-0.65
2023-03-11T20:59:30.368Z,-0.63
2023-03-11T21:02:00.138Z,-0.61
2023-03-11T21:04:32.566Z,-0.59
2023-03-11T21:07:02.651Z,-0.57
2023-03-11T21:09:32.466Z,-0.54
2023-03-11T21:12:02.172Z,-0.50
2023-03-11T21:14:31.947Z,-0.46
2023-03-11T21:17:01.651Z,-0.45
2023-03-11T21:19:33.948Z,-0.42
2023-03-11T21:22:04.391Z,-0.43
2023-03-11T21:24:34.010Z,-0.44
2023-03-11T21:27:03.949Z,-0.46
2023-03-11T21:29:33.592Z,-0.47
2023-03-11T21:32:03.642Z,-0.47
2023-03-11T21:34:36.345Z,-0.46
2023-03-11T21:37:05.975Z,-0.48
2023-03-11T21:39:35.587Z,-0.48
2023-03-11T21:42:05.330Z,-0.49
2023-03-11T21:44:35.010Z,-0.47
2023-03-11T21:47:04.733Z,-0.45
2023-03-11T21:49:37.396Z,-0.46
2023-03-11T21:52:07.530Z,-0.48
2023-03-11T21:54:37.224Z,-0.49
2023-03-11T21:57:07.174Z,-0.53
2023-03-11T21:59:37.202Z,-0.57
2023-03-11T22:02:06.906Z,-0.60
2023-03-11T22:04:39.182Z,-0.63
2023-03-11T22:07:09.082Z,-0.65
2023-03-11T22:09:38.871Z,-0.65
2023-03-11T22:12:09.234Z,-0.64
2023-03-11T22:14:38.888Z,-0.62
2023-03-11T22:17:08.808Z,-0.56
2023-03-11T22:19:41.127Z,-0.46
2023-03-11T22:22:10.792Z,-0.35
2023-03-11T22:24:40.636Z,-0.27
2023-03-11T22:27:10.270Z,-0.20
2023-03-11T22:29:40.432Z,-0.11
2023-03-11T22:32:10.045Z,-0.04
2023-03-11T22:34:42.240Z,0.03
2023-03-11T22:37:12.424Z,0.08
2023-03-11T22:39:42.033Z,0.13
2023-03-11T22:42:12.324Z,0.20
2023-03-11T22:44:41.965Z,0.26
2023-03-11T22:47:11.627Z,0.31
2023-03-11T22:49:43.838Z,0.37
2023-03-11T22:52:13.441Z,0.40
2023-03-11T22:54:43.073Z,0.43
2023-03-11T22:57:12.824Z,0.47
2023-03-11T22:59:42.479Z,0.50
2023-03-11T23:02:12.099Z,0.52
2023-03-11T23:04:46.826Z,0.53
2023-03-11T23:07:16.426Z,0.55
2023-03-11T23:09:46.089Z,0.58
2023-03-11T23:12:15.674Z,0.62
2023-03-11T23:14:47.198Z,0.66
2023-03-11T23:17:17.227Z,0.70
2023-03-11T23:19:49.410Z,0.72
2023-03-11T23:22:18.995Z,0.74
2023-03-11T23:24:48.658Z,0.76
2023-03-11T23:27:18.272Z,0.79
2023-03-11T23:29:47.964Z,0.80
2023-03-11T23:32:17.599Z,0.83
2023-03-11T23:34:49.916Z,0.85
2023-03-11T23:37:19.579Z,0.88
2023-03-11T23:39:49.208Z,0.91
2023-03-11T23:42:25.816Z,0.93
2023-03-11T23:44:55.996Z,0.94
2023-03-11T23:47:25.599Z,0.94
2023-03-11T23:49:58.244Z,0.91
2023-03-11T23:52:28.339Z,0.86
2023-03-11T23:54:58.468Z,0.82
2023-03-11T23:57:28.169Z,0.79
2023-03-11T23:59:57.801Z,0.77
